Time;durP1;ratioP1;P1;durP2;ratioP2;P2;SDS_P1;SDS_P2;PMS_P1;PMS_P2;Temp;Humidity;BMP_temperature;BMP_pressure;BME280_temperature;BME280_humidity;BME280_pressure;Samples;Min_cycle;Max_cycle;Signal;HPM_P1;HPM_P2
2022/12/11 00:01:59;;;;;;;18.02;8.68;;;;;;;9.39;nan;-24079.22;5036865;28;20782;-73
2022/12/11 00:04:25;;;;;;;21.67;8.30;;;;;;;9.68;nan;-24087.41;5030737;28;20179;-74
2022/12/11 00:06:51;;;;;;;21.50;8.50;;;;;;;9.26;nan;-24075.81;5031217;28;20186;-73
2022/12/11 00:09:18;;;;;;;15.48;7.43;;;;;;;9.57;nan;-24084.44;5034955;28;20233;-72
2022/12/11 00:11:43;;;;;;;16.73;8.82;;;;;;;9.62;nan;-24085.72;5032560;28;20252;-73
2022/12/11 00:14:09;;;;;;;14.23;8.02;;;;;;;9.64;nan;-24086.28;5032401;28;20175;-73
2022/12/11 00:16:34;;;;;;;21.17;8.73;;;;;;;9.71;nan;-24088.25;5032169;28;20179;-75
2022/12/11 00:19:00;;;;;;;17.40;7.95;;;;;;;9.34;nan;-24077.94;5032381;28;20179;-72
2022/12/11 00:21:25;;;;;;;18.35;8.65;;;;;;;9.20;nan;-24074.00;5031808;28;20646;-72
2022/12/11 00:23:51;;;;;;;20.20;8.82;;;;;;;9.23;nan;-24074.84;5032455;28;20635;-73
2022/12/11 00:26:17;;;;;;;16.98;8.18;;;;;;;9.00;nan;-24068.47;5034557;28;20266;-74
2022/12/11 00:28:44;;;;;;;17.17;9.20;;;;;;;9.21;nan;-24074.25;5031500;28;20214;-73
2022/12/11 00:31:16;;;;;;;24.17;9.85;;;;;;;8.65;nan;-24058.72;5031646;28;20187;-74
2022/12/11 00:33:43;;;;;;;18.17;9.40;;;;;;;9.03;nan;-24069.19;5031976;28;20178;-74
2022/12/11 00:36:20;;;;;;;21.70;9.95;;;;;;;8.52;nan;-24055.03;5032774;28;20259;-71
2022/12/11 00:38:46;;;;;;;21.90;10.40;;;;;;;8.82;nan;-24063.38;5033912;28;20182;-73
2022/12/11 00:41:11;;;;;;;19.97;8.73;;;;;;;8.61;nan;-24057.44;5031135;28;20187;-73
2022/12/11 00:43:37;;;;;;;21.47;9.53;;;;;;;8.78;nan;-24062.25;5031870;28;20693;-74
2022/12/11 00:46:03;;;;;;;17.43;8.23;;;;;;;8.55;nan;-24055.88;5031929;28;20257;-73
2022/12/11 00:48:28;;;;;;;17.73;7.70;;;;;;;8.72;nan;-24060.56;5030435;28;20652;-73
2022/12/11 00:50:54;;;;;;;20.17;9.63;;;;;;;8.68;nan;-24059.41;5031815;28;20179;-72
2022/12/11 00:53:19;;;;;;;20.57;10.23;;;;;;;8.82;nan;-24063.53;5031760;28;20183;-73
2022/12/11 00:55:44;;;;;;;17.67;8.53;;;;;;;8.96;nan;-24067.34;5030087;28;20641;-73
2022/12/11 00:58:11;;;;;;;21.40;8.93;;;;;;;8.73;nan;-24060.84;5034297;28;20187;-74
2022/12/11 01:00:37;;;;;;;23.23;8.67;;;;;;;8.96;nan;-24067.34;5032033;28;20263;-73
2022/12/11 01:03:03;;;;;;;20.13;7.80;;;;;;;8.91;nan;-24065.78;5031702;28;20214;-73
2022/12/11 01:05:28;;;;;;;13.93;6.90;;;;;;;9.40;nan;-24079.63;5032982;28;20598;-73
2022/12/11 01:07:54;;;;;;;11.60;5.77;;;;;;;9.80;nan;-24090.81;5034822;28;20253;-75
2022/12/11 01:10:25;;;;;;;14.33;7.53;;;;;;;9.72;nan;-24088.53;5030369;28;20195;-73
2022/12/11 01:12:58;;;;;;;15.60;7.70;;;;;;;9.75;nan;-24089.38;5032531;28;20624;-73
2022/12/11 01:15:29;;;;;;;18.42;7.43;;;;;;;10.17;nan;-24101.25;5031714;28;20179;-73
2022/12/11 01:17:55;;;;;;;14.35;7.00;;;;;;;10.05;nan;-24097.88;5031937;28;20214;-73
2022/12/11 01:20:23;;;;;;;17.73;6.15;;;;;;;9.84;nan;-24091.78;5031780;28;20186;-73
2022/12/11 01:22:52;;;;;;;14.15;7.32;;;;;;;9.77;nan;-24089.94;5031277;28;20264;-73
2022/12/11 01:25:18;;;;;;;13.80;7.35;;;;;;;9.70;nan;-24088.13;5031775;28;20175;-73
2022/12/11 01:27:43;;;;;;;11.25;6.72;;;;;;;10.09;nan;-24098.84;5031319;28;20633;-72
2022/12/11 01:30:09;;;;;;;13.10;6.82;;;;;;;10.09;nan;-24099.00;5031557;28;20155;-71
2022/12/11 01:32:35;;;;;;;12.90;6.25;;;;;;;10.26;nan;-24103.53;5033171;28;20245;-73
2022/12/11 01:35:06;;;;;;;17.08;8.07;;;;;;;10.09;nan;-24098.84;5035153;28;20643;-73
2022/12/11 01:37:32;;;;;;;17.98;8.30;;;;;;;9.95;nan;-24095.03;5035143;28;20175;-72
2022/12/11 01:39:58;;;;;;;15.13;7.00;;;;;;;10.23;nan;-24102.66;5035337;28;20301;-73
2022/12/11 01:42:24;;;;;;;16.50;8.23;;;;;;;10.00;nan;-24096.31;5035389;28;20250;-73
2022/12/11 01:44:49;;;;;;;14.10;6.70;;;;;;;10.34;nan;-24105.78;5033318;28;20203;-73
2022/12/11 01:47:15;;;;;;;14.93;8.15;;;;;;;10.25;nan;-24103.22;5034757;28;20249;-73
2022/12/11 01:49:42;;;;;;;15.85;7.53;;;;;;;6.58;nan;-24000.59;5034661;28;20174;-73
2022/12/11 01:52:18;;;;;;;14.93;7.47;;;;;;;9.96;nan;-24095.31;5034577;28;20164;-73
2022/12/11 01:54:44;;;;;;;22.88;7.82;;;;;;;9.71;nan;-24088.41;5034615;28;20212;-73
2022/12/11 01:57:11;;;;;;;16.63;8.45;;;;;;;9.51;nan;-24082.59;5034546;28;20237;-73
2022/12/11 01:59:38;;;;;;;17.37;8.40;;;;;;;9.16;nan;-24072.84;5034444;28;20628;-73
2022/12/11 02:02:09;;;;;;;14.30;8.20;;;;;;;9.38;nan;-24078.94;5034218;28;20223;-73
2022/12/11 02:04:37;;;;;;;14.73;8.03;;;;;;;9.27;nan;-24075.97;5039564;28;20194;-73
2022/12/11 02:07:03;;;;;;;17.38;7.97;;;;;;;7.13;nan;-24016.06;5034419;28;20489;-73
2022/12/11 02:09:31;;;;;;;14.57;8.27;;;;;;;9.16;nan;-24072.84;5034542;28;20186;-72
2022/12/11 02:12:07;;;;;;;19.40;7.03;;;;;;;9.62;nan;-24085.72;5034154;28;20176;-73
2022/12/11 02:15:30;;;;;;;17.70;7.80;;;;;;;9.48;nan;-24081.91;5014211;28;20214;-73
2022/12/11 02:18:06;;;;;;;17.57;7.43;;;;;;;9.46;nan;-24081.19;4972828;28;20188;-71
2022/12/11 02:20:38;;;;;;;15.45;6.72;;;;;;;9.56;nan;-24084.16;4973401;28;20177;-72
2022/12/11 02:23:12;;;;;;;18.00;7.80;;;;;;;9.64;nan;-24086.44;4996583;28;20219;-74
2022/12/11 02:26:08;;;;;;;14.90;7.75;;;;;;;9.65;nan;-24086.72;5014558;28;20194;-73
2022/12/11 02:28:40;;;;;;;15.68;7.35;;;;;;;9.55;nan;-24083.88;5014204;28;20733;-73
2022/12/11 02:31:12;;;;;;;17.77;8.02;;;;;;;9.70;nan;-24088.13;5014429;28;20195;-73
2022/12/11 02:33:44;;;;;;;14.15;7.05;;;;;;;9.43;nan;-24080.50;5013923;28;20723;-73
2022/12/11 02:36:12;;;;;;;15.90;7.82;;;;;;;9.75;nan;-24089.38;5014257;28;20168;-72
2022/12/11 02:38:42;;;;;;;15.02;7.72;;;;;;;9.58;nan;-24084.72;5014499;28;20184;-72
2022/12/11 02:41:10;;;;;;;14.30;6.97;;;;;;;9.85;nan;-24092.06;5014218;28;20199;-73
2022/12/11 02:43:37;;;;;;;19.27;7.45;;;;;;;9.61;nan;-24085.56;5014352;28;20225;-73
2022/12/11 02:46:06;;;;;;;12.52;5.93;;;;;;;9.66;nan;-24086.97;5014046;28;20183;-73
2022/12/11 02:48:33;;;;;;;9.23;4.75;;;;;;;9.83;nan;-24091.50;5013733;28;20674;-73
2022/12/11 02:51:01;;;;;;;13.40;5.22;;;;;;;9.92;nan;-24094.19;5014424;28;20637;-74
2022/12/11 02:53:30;;;;;;;12.77;6.85;;;;;;;10.15;nan;-24100.53;5014211;28;20199;-72
2022/12/11 02:56:15;;;;;;;9.93;5.72;;;;;;;10.38;nan;-24106.91;5014075;28;20175;-73
2022/12/11 02:58:47;;;;;;;11.15;6.50;;;;;;;10.11;nan;-24099.56;5012536;28;20172;-73
2022/12/11 03:01:12;;;;;;;10.98;4.68;;;;;;;10.43;nan;-24108.47;5013247;28;20172;-73
2022/12/11 03:03:38;;;;;;;13.23;6.88;;;;;;;10.34;nan;-24105.91;5014536;28;20274;-73
2022/12/11 03:06:04;;;;;;;14.23;5.30;;;;;;;9.98;nan;-24095.75;5013518;28;20230;-72
2022/12/11 03:08:30;;;;;;;12.10;5.55;;;;;;;10.48;nan;-24109.72;5014080;28;20207;-73
2022/12/11 03:10:55;;;;;;;9.10;5.43;;;;;;;9.52;nan;-24083.03;5013784;28;20178;-72
2022/12/11 03:13:21;;;;;;;9.15;5.03;;;;;;;10.39;nan;-24107.31;5013712;28;20172;-73
2022/12/11 03:15:55;;;;;;;9.55;5.22;;;;;;;10.40;nan;-24107.47;5013248;28;20255;-72
2022/12/11 03:18:26;;;;;;;12.82;6.13;;;;;;;10.90;nan;-24121.44;5013936;28;20180;-74
2022/12/11 03:21:18;;;;;;;8.98;5.05;;;;;;;11.08;nan;-24126.50;5013631;28;20215;-74
2022/12/11 03:23:54;;;;;;;13.13;4.25;;;;;;;11.32;nan;-24133.13;5013159;28;20160;-73
2022/12/11 03:26:21;;;;;;;7.60;3.90;;;;;;;11.26;nan;-24131.59;5013812;28;20174;-74
2022/12/11 03:28:57;;;;;;;7.90;4.88;;;;;;;11.19;nan;-24129.59;5013441;28;20675;-72
2022/12/11 03:31:45;;;;;;;15.25;5.50;;;;;;;11.33;nan;-24133.41;5013364;28;20172;-74
2022/12/11 03:34:17;;;;;;;7.97;4.47;;;;;;;11.24;nan;-24131.03;5013487;28;20264;-72
2022/12/11 03:36:46;;;;;;;9.38;5.45;;;;;;;11.02;nan;-24124.97;5013160;28;20678;-73
2022/12/11 03:39:17;;;;;;;10.07;4.53;;;;;;;10.93;nan;-24122.41;5011758;28;20651;-73
2022/12/11 03:41:45;;;;;;;10.60;5.72;;;;;;;10.90;nan;-24121.56;5012799;28;20164;-73
2022/12/11 03:44:12;;;;;;;11.18;4.93;;;;;;;10.60;nan;-24113.25;5011609;28;20566;-72
2022/12/11 03:46:39;;;;;;;16.55;5.88;;;;;;;10.55;nan;-24111.84;5012398;28;20214;-73
2022/12/11 03:49:12;;;;;;;10.63;4.70;;;;;;;10.66;nan;-24114.66;5012667;28;20200;-73
2022/12/11 03:51:39;;;;;;;7.60;4.45;;;;;;;10.69;nan;-24115.66;5011827;28;20566;-73
2022/12/11 03:54:05;;;;;;;8.75;4.65;;;;;;;10.72;nan;-24116.34;5012184;28;20170;-73
2022/12/11 03:56:31;;;;;;;10.55;4.95;;;;;;;;;;5012593;28;20242;-73
2022/12/11 03:58:57;;;;;;;12.88;6.20;;;;;;;10.69;nan;-24115.66;5013023;28;20210;-72
2022/12/11 04:01:22;;;;;;;14.27;5.28;;;;;;;10.59;nan;-24112.81;5011911;28;20267;-72
2022/12/11 04:03:48;;;;;;;7.45;4.75;;;;;;;10.54;nan;-24111.41;5013117;28;20628;-72
2022/12/11 04:06:13;;;;;;;10.45;5.20;;;;;;;10.17;nan;-24101.13;5012989;28;20199;-72
2022/12/11 04:08:38;;;;;;;9.30;5.45;;;;;;;10.17;nan;-24101.13;5012160;28;20199;-73
2022/12/11 04:15:00;;;;;;;13.02;6.45;;;;;;;10.06;nan;-24098.00;5012008;28;20272;-73
2022/12/11 04:16:33;;;;;;;10.40;5.13;;;;;;;10.60;nan;-24113.25;5012161;28;20250;-73
2022/12/11 04:24:27;;;;;;;13.77;5.65;;;;;;;10.51;nan;-24110.56;5012432;28;20210;-73
2022/12/11 04:26:52;;;;;;;13.98;6.00;;;;;;;10.31;nan;-24105.06;5012601;28;20164;-72
2022/12/11 04:29:18;;;;;;;9.77;4.43;;;;;;;10.69;nan;-24115.66;5012216;28;20214;-74
2022/12/11 04:31:44;;;;;;;7.55;5.18;;;;;;;11.15;nan;-24128.47;5012190;28;20176;-73
2022/12/11 04:34:10;;;;;;;11.20;5.90;;;;;;;11.18;nan;-24129.19;5010909;28;20176;-72
2022/12/11 04:36:37;;;;;;;9.07;4.95;;;;;;;11.05;nan;-24125.66;5012073;28;20175;-74
2022/12/11 04:39:04;;;;;;;7.60;4.75;;;;;;;11.25;nan;-24131.16;5011756;28;20179;-73
2022/12/11 04:41:29;;;;;;;9.48;5.30;;;;;;;11.12;nan;-24127.50;5011392;28;20168;-74
2022/12/11 04:43:55;;;;;;;7.57;4.80;;;;;;;10.83;nan;-24119.47;5012237;28;20168;-74
2022/12/11 04:46:23;;;;;;;9.45;4.47;;;;;;;11.19;nan;-24129.47;5011414;28;20677;-73
2022/12/11 04:48:50;;;;;;;8.23;3.83;;;;;;;10.89;nan;-24121.16;5012208;28;20196;-73
2022/12/11 04:51:17;;;;;;;9.38;4.22;;;;;;;11.39;nan;-24135.25;5011850;28;20563;-73
2022/12/11 04:53:44;;;;;;;8.27;4.38;;;;;;;11.37;nan;-24134.53;5012114;28;20207;-73
2022/12/11 04:56:13;;;;;;;8.15;4.93;;;;;;;10.99;nan;-24123.97;5012306;28;20180;-72
2022/12/11 04:58:40;;;;;;;10.68;5.78;;;;;;;11.04;nan;-24125.38;5011745;28;20172;-73
2022/12/11 05:01:10;;;;;;;8.27;4.22;;;;;;;10.91;nan;-24121.84;5032641;28;20221;-73
2022/12/11 05:03:35;;;;;;;9.23;5.18;;;;;;;10.66;nan;-24114.66;5037095;28;20218;-70
2022/12/11 05:06:01;;;;;;;10.95;5.60;;;;;;;10.63;nan;-24114.09;5032535;28;20186;-74
2022/12/11 05:08:26;;;;;;;9.90;4.38;;;;;;;10.82;nan;-24119.31;5034300;28;20198;-72
2022/12/11 05:11:00;;;;;;;9.68;4.10;;;;;;;10.77;nan;-24117.78;5039713;28;20179;-77
2022/12/11 05:13:29;;;;;;;8.90;4.85;;;;;;;9.82;nan;-24091.22;5042780;28;20190;-71
2022/12/11 05:15:56;;;;;;;7.93;4.47;;;;;;;10.75;nan;-24117.34;5034284;28;20183;-73
2022/12/11 05:18:22;;;;;;;7.85;4.55;;;;;;;10.77;nan;-24117.91;5036567;28;20256;-75
2022/12/11 05:21:01;;;;;;;7.88;4.50;;;;;;;10.70;nan;-24115.78;5042411;28;20208;-72
2022/12/11 05:23:26;;;;;;;11.80;4.78;;;;;;;10.67;nan;-24115.09;5035070;28;20274;-73
2022/12/11 05:25:57;;;;;;;7.80;4.53;;;;;;;10.74;nan;-24116.91;5043040;28;20689;-73
2022/12/11 05:28:24;;;;;;;8.85;5.03;;;;;;;10.56;nan;-24112.13;5041395;28;20631;-73
2022/12/11 05:30:57;;;;;;;11.57;4.65;;;;;;;10.48;nan;-24109.72;5044206;28;20194;-72
2022/12/11 05:33:23;;;;;;;9.05;4.47;;;;;;;10.70;nan;-24115.78;5041858;28;20175;-73
2022/12/11 05:35:49;;;;;;;7.47;4.13;;;;;;;10.61;nan;-24113.41;5043167;28;20248;-73
2022/12/11 05:38:14;;;;;;;9.82;4.13;;;;;;;10.75;nan;-24117.34;5034154;28;20221;-74
2022/12/11 05:40:40;;;;;;;5.85;3.78;;;;;;;10.47;nan;-24109.59;5034006;28;20211;-73
2022/12/11 05:43:05;;;;;;;7.55;4.03;;;;;;;10.70;nan;-24115.78;5042616;28;20189;-73
2022/12/11 05:45:31;;;;;;;10.40;3.33;;;;;;;10.29;nan;-24104.50;5041282;28;20194;-72
2022/12/11 05:47:56;;;;;;;9.18;3.97;;;;;;;10.42;nan;-24108.16;5039852;28;20670;-73
2022/12/11 05:50:21;;;;;;;6.57;4.22;;;;;;;10.23;nan;-24102.66;5037777;28;20171;-73
2022/12/11 05:52:47;;;;;;;5.57;3.55;;;;;;;10.12;nan;-24099.69;5039109;28;20235;-73
2022/12/11 05:55:12;;;;;;;10.95;4.65;;;;;;;10.43;nan;-24108.31;5040509;28;20178;-73
2022/12/11 05:57:38;;;;;;;7.07;4.15;;;;;;;10.42;nan;-24108.03;5042316;28;20686;-73
2022/12/11 06:00:05;;;;;;;13.35;4.25;;;;;;;10.19;nan;-24101.69;5040970;28;20265;-72
2022/12/11 06:02:30;;;;;;;7.85;4.43;;;;;;;10.42;nan;-24108.16;5043378;28;20279;-73
2022/12/11 06:04:55;;;;;;;14.25;7.20;;;;;;;9.94;nan;-24094.63;5034874;28;20575;-73
2022/12/11 06:07:21;;;;;;;10.68;6.63;;;;;;;10.22;nan;-24102.53;5040648;28;20233;-74
2022/12/11 06:09:46;;;;;;;8.77;5.22;;;;;;;10.54;nan;-24111.56;5027884;28;20175;-73
2022/12/11 06:12:11;;;;;;;11.88;5.93;;;;;;;10.68;nan;-24115.38;5034792;28;20190;-73
2022/12/11 06:14:37;;;;;;;12.90;6.72;;;;;;;10.70;nan;-24115.94;5034546;28;20184;-73
2022/12/11 06:17:02;;;;;;;14.20;6.75;;;;;;;10.77;nan;-24117.78;5036937;28;20678;-73
2022/12/11 06:19:28;;;;;;;11.48;7.43;;;;;;;10.77;nan;-24117.78;5036732;28;20190;-73
2022/12/11 06:21:53;;;;;;;11.18;6.50;;;;;;;10.79;nan;-24118.34;5035358;28;20554;-74
2022/12/11 06:24:19;;;;;;;9.77;6.10;;;;;;;10.54;nan;-24111.56;5039466;28;20217;-72
2022/12/11 06:26:44;;;;;;;8.38;4.88;;;;;;;10.58;nan;-24112.56;5036667;28;20752;-73
2022/12/11 06:29:10;;;;;;;9.48;4.82;;;;;;;10.71;nan;-24116.22;5036893;28;20708;-74
2022/12/11 06:31:35;;;;;;;9.73;4.80;;;;;;;11.07;nan;-24126.38;5042170;28;20182;-72
2022/12/11 06:34:00;;;;;;;10.80;5.00;;;;;;;10.88;nan;-24121.00;5042961;28;20608;-75
2022/12/11 06:36:26;;;;;;;8.73;4.60;;;;;;;10.08;nan;-24098.72;5037593;28;20186;-72
2022/12/11 06:38:54;;;;;;;12.20;5.13;;;;;;;11.03;nan;-24125.09;5043835;28;20282;-71
2022/12/11 06:41:19;;;;;;;7.65;5.13;;;;;;;10.89;nan;-24121.16;5036139;28;20183;-71
2022/12/11 06:43:45;;;;;;;7.88;4.80;;;;;;;11.30;nan;-24132.72;5034548;28;20232;-75
2022/12/11 06:46:16;;;;;;;11.32;4.68;;;;;;;11.50;nan;-24138.22;5037740;28;20278;-75
2022/12/11 06:48:42;;;;;;;9.65;5.60;;;;;;;11.71;nan;-24143.97;5032450;28;20203;-72
2022/12/11 06:51:17;;;;;;;9.23;4.93;;;;;;;11.71;nan;-24143.97;5033925;28;20186;-74
2022/12/11 06:53:43;;;;;;;8.50;5.70;;;;;;;11.52;nan;-24138.78;5033759;28;20558;-73
2022/12/11 06:56:13;;;;;;;9.18;4.93;;;;;;;11.50;nan;-24138.34;5033611;28;20245;-73
2022/12/11 06:58:40;;;;;;;8.30;4.18;;;;;;;11.85;nan;-24148.06;5032298;28;20547;-73
2022/12/11 07:01:21;;;;;;;7.70;4.28;;;;;;;11.94;nan;-24150.47;5035908;28;20242;-73
2022/12/11 07:03:46;;;;;;;7.75;4.22;;;;;;;11.89;nan;-24149.06;5045939;28;20699;-73
2022/12/11 07:06:12;;;;;;;7.25;4.88;;;;;;;11.91;nan;-24149.63;5037792;28;20234;-74
2022/12/11 07:08:38;;;;;;;10.40;5.10;;;;;;;11.77;nan;-24145.69;5034836;28;20285;-73
2022/12/11 07:11:10;;;;;;;17.63;5.00;;;;;;;11.96;nan;-24151.03;5033034;28;20810;-74
2022/12/11 07:13:35;;;;;;;8.55;4.28;;;;;;;12.19;nan;-24157.38;5032837;28;20164;-73
2022/12/11 07:16:03;;;;;;;9.63;4.50;;;;;;;12.09;nan;-24154.53;5034836;28;20551;-72
2022/12/11 07:18:29;;;;;;;9.52;4.85;;;;;;;12.13;nan;-24155.81;5037731;28;20186;-73
2022/12/11 07:20:58;;;;;;;18.52;7.47;;;;;;;12.07;nan;-24154.13;5032612;28;20179;-77
2022/12/11 07:23:24;;;;;;;18.10;7.45;;;;;;;12.20;nan;-24157.66;5032361;28;20701;-76
2022/12/11 07:25:49;;;;;;;17.88;8.75;;;;;;;12.30;nan;-24160.59;5037133;28;20179;-72
2022/12/11 07:28:15;;;;;;;19.10;9.27;;;;;;;12.33;nan;-24161.31;5038677;28;20194;-74
2022/12/11 07:30:40;;;;;;;15.13;8.68;;;;;;;12.34;nan;-24161.72;5036048;28;20648;-74
2022/12/11 07:33:06;;;;;;;13.35;7.63;;;;;;;12.28;nan;-24160.03;5034389;28;20190;-74
2022/12/11 07:35:34;;;;;;;14.40;6.80;;;;;;;12.65;nan;-24170.16;5034241;28;20182;-72
2022/12/11 07:37:59;;;;;;;17.88;6.65;;;;;;;12.54;nan;-24167.06;5039006;28;20506;-73
2022/12/11 07:40:25;;;;;;;13.35;6.40;;;;;;;12.76;nan;-24173.25;5038766;28;20175;-73
2022/12/11 07:42:50;;;;;;;13.13;5.88;;;;;;;12.98;nan;-24179.31;5035787;28;20241;-73
2022/12/11 07:45:16;;;;;;;9.85;5.47;;;;;;;12.95;nan;-24178.47;5033139;28;20183;-74
2022/12/11 07:47:41;;;;;;;11.02;6.85;;;;;;;13.10;nan;-24182.69;5032280;28;20290;-74
2022/12/11 07:50:07;;;;;;;12.60;6.93;;;;;;;13.35;nan;-24189.72;5032241;28;20191;-73
2022/12/11 07:52:33;;;;;;;11.73;6.75;;;;;;;13.37;nan;-24190.13;5033868;28;20688;-73
2022/12/11 07:54:59;;;;;;;13.85;6.55;;;;;;;13.23;nan;-24186.47;5032612;28;20283;-73
2022/12/11 07:57:25;;;;;;;16.25;6.72;;;;;;;13.43;nan;-24191.81;5031969;28;20183;-72
2022/12/11 07:59:50;;;;;;;12.07;6.35;;;;;;;13.09;nan;-24182.53;5034202;28;20190;-73
2022/12/11 08:02:15;;;;;;;14.05;6.57;;;;;;;13.10;nan;-24182.69;5032376;28;20218;-74
2022/12/11 08:04:41;;;;;;;12.77;6.50;;;;;;;13.42;nan;-24191.66;5036311;28;20241;-74
2022/12/11 08:07:06;;;;;;;11.13;6.55;;;;;;;13.44;nan;-24192.25;5031673;28;20186;-73
2022/12/11 08:09:32;;;;;;;14.73;6.70;;;;;;;13.32;nan;-24188.72;5036961;28;20225;-73
2022/12/11 08:11:57;;;;;;;13.20;6.18;;;;;;;13.23;nan;-24186.47;5030012;28;20635;-74
2022/12/11 08:14:23;;;;;;;13.07;6.22;;;;;;;13.58;nan;-24196.03;5038017;28;20183;-73
2022/12/11 08:16:49;;;;;;;9.10;5.78;;;;;;;13.70;nan;-24199.41;5033457;28;20205;-74
2022/12/11 08:19:14;;;;;;;12.82;5.90;;;;;;;13.83;nan;-24202.91;5031514;28;20262;-73
2022/12/11 08:21:40;;;;;;;13.20;6.85;;;;;;;13.49;nan;-24193.63;5032273;28;20293;-74
2022/12/11 08:24:07;;;;;;;8.70;5.05;;;;;;;14.03;nan;-24208.53;5031485;28;20228;-73
2022/12/11 08:26:33;;;;;;;7.03;4.72;;;;;;;14.45;nan;-24220.16;5033875;28;20186;-74
2022/12/11 08:29:00;;;;;;;12.38;4.97;;;;;;;14.28;nan;-24215.41;5037778;28;20286;-73
2022/12/11 08:31:26;;;;;;;8.48;4.93;;;;;;;14.31;nan;-24216.38;5036836;28;20222;-74
2022/12/11 08:33:54;;;;;;;8.95;5.50;;;;;;;14.39;nan;-24218.47;5036834;28;20186;-74
2022/12/11 08:36:21;;;;;;;14.52;4.97;;;;;;;14.81;nan;-24230.25;5036037;28;20206;-74
2022/12/11 08:38:47;;;;;;;10.68;5.07;;;;;;;14.84;nan;-24231.09;5033911;28;20209;-74
2022/12/11 08:41:18;;;;;;;13.20;5.50;;;;;;;14.69;nan;-24226.91;5031230;28;20218;-75
2022/12/11 08:43:44;;;;;;;9.40;5.20;;;;;;;15.32;nan;-24244.41;5033609;28;20270;-74
2022/12/11 08:46:10;;;;;;;8.02;4.05;;;;;;;15.46;nan;-24248.34;5031247;28;20309;-75
2022/12/11 08:48:37;;;;;;;7.50;4.15;;;;;;;15.75;nan;-24256.31;5031170;28;20196;-75
2022/12/11 08:51:04;;;;;;;10.90;4.00;;;;;;;15.98;nan;-24262.47;5034073;28;20178;-74
2022/12/11 08:53:31;;;;;;;9.77;4.78;;;;;;;16.33;nan;-24272.25;5029665;28;20568;-76
2022/12/11 08:56:05;;;;;;;8.45;4.18;;;;;;;16.53;nan;-24277.72;5031262;28;20194;-76
2022/12/11 08:58:31;;;;;;;8.88;4.50;;;;;;;16.69;nan;-24282.19;5030607;28;20193;-74
2022/12/11 09:00:57;;;;;;;9.98;4.70;;;;;;;16.78;nan;-24284.69;5030230;28;20634;-73
2022/12/11 09:03:23;;;;;;;8.20;4.10;;;;;;;16.54;nan;-24278.00;5030861;28;20269;-74
2022/12/11 09:05:49;;;;;;;7.85;3.33;;;;;;;16.64;nan;-24280.94;5029422;28;20191;-74
2022/12/11 09:08:15;;;;;;;5.13;3.83;;;;;;;17.08;nan;-24293.09;5029791;28;20202;-75
2022/12/11 09:10:40;;;;;;;7.45;4.22;;;;;;;17.12;nan;-24294.06;5029355;28;20200;-75
2022/12/11 09:13:06;;;;;;;7.35;3.30;;;;;;;17.05;nan;-24292.25;5036079;28;20179;-74
2022/12/11 09:15:31;;;;;;;7.45;3.30;;;;;;;17.30;nan;-24298.94;5034236;28;20187;-74
2022/12/11 09:17:57;;;;;;;5.45;2.75;;;;;;;17.05;nan;-24292.09;5030681;28;20286;-75
2022/12/11 09:20:22;;;;;;;7.28;3.17;;;;;;;17.09;nan;-24293.22;5030754;28;20625;-75
2022/12/11 09:22:47;;;;;;;6.20;3.58;;;;;;;17.20;nan;-24296.28;5029299;28;20221;-74
2022/12/11 09:25:13;;;;;;;7.88;3.20;;;;;;;16.98;nan;-24290.16;5036158;28;20256;-74
2022/12/11 09:27:38;;;;;;;5.75;3.47;;;;;;;16.92;nan;-24288.47;5037262;28;20693;-74
2022/12/11 09:30:04;;;;;;;7.80;3.45;;;;;;;16.87;nan;-24287.22;5030515;28;20179;-74
2022/12/11 09:32:30;;;;;;;9.50;3.35;;;;;;;16.89;nan;-24287.63;5030082;28;20176;-74
2022/12/11 09:34:55;;;;;;;8.02;4.13;;;;;;;16.91;nan;-24288.19;5031048;28;20176;-75
2022/12/11 09:37:21;;;;;;;5.45;3.95;;;;;;;16.90;nan;-24287.91;5031485;28;20183;-74
2022/12/11 09:39:46;;;;;;;5.07;3.10;;;;;;;16.73;nan;-24283.44;5034335;28;20262;-76
2022/12/11 09:42:38;;;;;;;7.43;3.42;;;;;;;16.79;nan;-24285.13;5028929;28;20663;-75
2022/12/11 09:45:05;;;;;;;4.88;3.08;;;;;;;17.17;nan;-24295.59;5030686;28;20183;-76
2022/12/11 09:47:41;;;;;;;6.03;3.70;;;;;;;17.22;nan;-24297.00;5030122;28;20219;-76
2022/12/11 09:50:10;;;;;;;5.85;3.30;;;;;;;17.38;nan;-24301.31;5029523;28;20195;-76
2022/12/11 09:52:54;;;;;;;6.82;3.80;;;;;;;17.79;nan;-24312.47;5030444;28;20182;-77
2022/12/11 09:55:26;;;;;;;7.88;3.45;;;;;;;17.77;nan;-24312.06;5036138;28;20188;-74
2022/12/11 09:57:51;;;;;;;5.93;3.50;;;;;;;17.56;nan;-24306.34;5037509;28;20183;-74
2022/12/11 10:00:29;;;;;;;6.18;3.72;;;;;;;17.27;nan;-24298.25;5036020;28;20281;-75
2022/12/11 10:03:09;;;;;;;7.82;3.33;;;;;;;17.39;nan;-24301.44;5034034;28;20247;-75
2022/12/11 10:06:12;;;;;;;3.65;2.55;;;;;;;17.77;nan;-24312.06;5033945;28;20164;-76
2022/12/11 10:09:13;;;;;;;7.10;3.63;;;;;;;17.81;nan;-24313.19;5033763;28;20288;-75
2022/12/11 10:11:41;;;;;;;5.85;3.22;;;;;;;17.74;nan;-24311.22;5014569;28;20267;-75
2022/12/11 10:14:25;;;;;;;7.32;3.28;;;;;;;18.09;nan;-24320.97;5013134;28;20587;-76
2022/12/11 10:16:59;;;;;;;5.57;2.70;;;;;;;17.78;nan;-24312.19;5014326;28;20208;-75
2022/12/11 10:19:30;;;;;;;8.02;2.95;;;;;;;17.88;nan;-24315.13;5036290;28;20209;-76
2022/12/11 10:21:56;;;;;;;4.72;3.00;;;;;;;18.23;nan;-24324.59;5034055;28;20259;-75
2022/12/11 10:24:26;;;;;;;5.00;3.28;;;;;;;18.21;nan;-24324.19;5034501;28;20187;-76
2022/12/11 10:26:59;;;;;;;3.72;2.15;;;;;;;18.34;nan;-24327.81;5033729;28;20259;-76
2022/12/11 10:29:24;;;;;;;4.18;2.40;;;;;;;18.20;nan;-24323.91;5031978;28;20206;-76
2022/12/11 10:31:59;;;;;;;5.22;2.50;;;;;;;18.50;nan;-24332.13;5036050;28;20191;-76
2022/12/11 10:34:38;;;;;;;3.88;2.22;;;;;;;18.47;nan;-24331.28;5032354;28;20228;-77
2022/12/11 10:37:04;;;;;;;3.00;2.45;;;;;;;18.46;nan;-24331.00;5034110;28;20179;-77
2022/12/11 10:39:29;;;;;;;2.78;2.05;;;;;;;18.37;nan;-24328.66;5033548;28;20184;-75
2022/12/11 10:41:55;;;;;;;2.60;2.00;;;;;;;18.47;nan;-24331.28;5033282;28;20178;-76
2022/12/11 10:44:21;;;;;;;9.38;2.53;;;;;;;18.89;nan;-24342.84;5033603;28;20183;-76
2022/12/11 10:47:00;;;;;;;5.75;2.33;;;;;;;18.63;nan;-24335.63;5032172;28;20206;-75
2022/12/11 10:49:30;;;;;;;3.85;2.20;;;;;;;18.75;nan;-24338.97;5033845;28;20674;-76
2022/12/11 10:52:00;;;;;;;2.45;1.75;;;;;;;19.07;nan;-24347.72;5033397;28;20175;-77
2022/12/11 10:54:39;;;;;;;3.15;1.77;;;;;;;19.13;nan;-24349.53;5033534;28;20183;-76
2022/12/11 10:57:07;;;;;;;2.80;1.88;;;;;;;19.20;nan;-24351.47;5033399;28;20690;-76
2022/12/11 10:59:38;;;;;;;4.72;2.13;;;;;;;19.26;nan;-24353.16;5032150;28;20182;-75
2022/12/11 11:02:06;;;;;;;3.20;2.33;;;;;;;19.19;nan;-24351.06;5033211;28;20773;-76
2022/12/11 11:04:35;;;;;;;3.22;1.73;;;;;;;19.30;nan;-24354.13;5031933;28;20197;-76
2022/12/11 11:07:23;;;;;;;5.07;2.22;;;;;;;19.32;nan;-24354.69;5032854;28;21396;-75
2022/12/11 11:09:50;;;;;;;4.20;2.85;;;;;;;18.98;nan;-24345.38;5033509;28;20717;-75
2022/12/11 11:12:19;;;;;;;5.57;2.40;;;;;;;19.05;nan;-24347.31;5032193;28;20536;-74
2022/12/11 11:14:44;;;;;;;2.35;1.92;;;;;;;18.69;nan;-24337.28;5031611;28;20258;-75
2022/12/11 11:17:14;;;;;;;6.15;2.60;;;;;;;18.80;nan;-24340.34;5033345;28;20689;-75
2022/12/11 11:19:40;;;;;;;6.32;3.03;;;;;;;18.69;nan;-24337.44;5033367;28;20277;-74
2022/12/11 11:22:14;;;;;;;5.47;3.05;;;;;;;18.55;nan;-24333.53;5033088;28;20638;-78
2022/12/11 11:25:01;;;;;;;10.63;3.72;;;;;;;18.22;nan;-24324.34;5032915;28;20618;-65
2022/12/11 11:27:33;;;;;;;4.55;2.60;;;;;;;18.17;nan;-24323.06;5033993;28;20682;-64
2022/12/11 11:30:16;;;;;;;4.40;2.50;;;;;;;18.37;nan;-24328.50;5038026;28;20537;-65
2022/12/11 11:32:42;;;;;;;4.70;2.40;;;;;;;18.03;nan;-24319.31;5036451;28;20759;-65
2022/12/11 11:35:11;;;;;;;4.85;3.45;;;;;;;18.36;nan;-24328.22;5033017;28;20187;-66
2022/12/11 11:37:37;;;;;;;5.50;3.03;;;;;;;18.08;nan;-24320.56;5038283;28;20197;-65
2022/12/11 11:40:18;;;;;;;6.50;2.88;;;;;;;18.33;nan;-24327.53;5037642;28;20179;-67
2022/12/11 11:43:00;;;;;;;4.90;2.75;;;;;;;18.28;nan;-24326.00;5033155;28;20190;-64
2022/12/11 11:45:37;;;;;;;3.70;2.17;;;;;;;18.40;nan;-24329.47;5037286;28;20203;-63
2022/12/11 11:48:14;;;;;;;4.53;2.30;;;;;;;18.44;nan;-24330.47;5032557;28;20195;-65
2022/12/11 11:50:44;;;;;;;3.50;2.05;;;;;;;18.48;nan;-24331.72;5031369;28;20160;-65
2022/12/11 11:53:18;;;;;;;8.80;2.20;;;;;;;18.37;nan;-24328.50;5031847;28;20258;-66
2022/12/11 11:56:14;;;;;;;3.95;2.22;;;;;;;18.61;nan;-24335.19;5032221;28;20169;-66